Time;durP1;ratioP1;P1;durP2;ratioP2;P2;SDS_P1;SDS_P2;PMS_P1;PMS_P2;Temp;Humidity;BMP_temperature;BMP_pressure;BME280_temperature;BME280_humidity;BME280_pressure;Samples;Min_cycle;Max_cycle;Signal;HPM_P1;HPM_P2
2024/01/11 00:00:31;;;;;;;61.47;23.30;;;;;;;;;;5013558;28;20507;-55
2024/01/11 00:02:57;;;;;;;62.97;23.05;;;;;;;;;;5007011;28;20057;-54
2024/01/11 00:05:23;;;;;;;60.55;22.63;;;;;;;;;;5010191;28;20038;-54
2024/01/11 00:07:49;;;;;;;69.60;22.73;;;;;;;;;;5008969;28;20029;-57
2024/01/11 00:10:16;;;;;;;67.68;24.55;;;;;;;;;;5009546;28;20029;-56
2024/01/11 00:12:42;;;;;;;74.95;25.08;;;;;;;;;;5014547;28;20118;-56
2024/01/11 00:15:08;;;;;;;73.50;22.70;;;;;;;;;;5010558;28;20551;-57
2024/01/11 00:17:34;;;;;;;62.80;23.15;;;;;;;;;;5013760;28;20025;-54
2024/01/11 00:20:00;;;;;;;62.58;21.33;;;;;;;;;;5004045;28;20026;-52
2024/01/11 00:22:26;;;;;;;67.30;23.38;;;;;;;;;;5006370;28;20026;-57
2024/01/11 00:24:52;;;;;;;54.42;21.70;;;;;;;;;;5009384;28;20026;-55
2024/01/11 00:27:18;;;;;;;60.17;23.35;;;;;;;;;;5013320;28;20026;-56
2024/01/11 00:29:44;;;;;;;58.83;20.80;;;;;;;;;;5012964;28;20140;-59
2024/01/11 00:32:10;;;;;;;62.83;20.83;;;;;;;;;;5008101;28;20045;-57
2024/01/11 00:34:36;;;;;;;61.45;23.33;;;;;;;;;;5004418;28;20018;-56
2024/01/11 00:37:02;;;;;;;55.13;21.08;;;;;;;;;;5005179;28;20029;-56
2024/01/11 00:39:29;;;;;;;58.05;20.88;;;;;;;;;;5001110;28;20037;-57
2024/01/11 00:41:55;;;;;;;52.78;21.95;;;;;;;;;;5007523;28;20030;-56
2024/01/11 00:44:21;;;;;;;59.38;22.15;;;;;;;;;;5012819;28;20028;-57
2024/01/11 00:46:47;;;;;;;70.32;22.30;;;;;;;;;;5011906;28;20045;-54
2024/01/11 00:49:13;;;;;;;67.45;23.80;;;;;;;;;;5008586;28;20037;-58
2024/01/11 00:51:39;;;;;;;63.15;22.58;;;;;;;;;;5011770;28;20041;-55
2024/01/11 00:54:05;;;;;;;61.85;21.20;;;;;;;;;;5008981;28;20037;-57
2024/01/11 00:56:31;;;;;;;59.28;22.33;;;;;;;;;;5011923;28;20030;-58
2024/01/11 00:58:57;;;;;;;70.95;24.23;;;;;;;;;;5014699;28;20041;-56
2024/01/11 01:01:23;;;;;;;62.03;22.38;;;;;;;;;;5012214;28;20029;-57
2024/01/11 01:03:49;;;;;;;59.05;22.52;;;;;;;;;;5007831;28;20030;-55
2024/01/11 01:06:14;;;;;;;61.05;22.17;;;;;;;;;;5012674;28;20104;-57
2024/01/11 01:08:40;;;;;;;64.85;23.10;;;;;;;;;;5013911;28;20026;-55
2024/01/11 01:11:06;;;;;;;65.93;24.67;;;;;;;;;;5014060;28;20083;-55
2024/01/11 01:13:32;;;;;;;59.58;22.23;;;;;;;;;;5008733;28;20034;-56
2024/01/11 01:15:58;;;;;;;60.60;21.92;;;;;;;;;;5005559;28;20038;-56
2024/01/11 01:18:24;;;;;;;66.07;23.25;;;;;;;;;;5011240;28;20037;-56
2024/01/11 01:20:50;;;;;;;60.00;22.30;;;;;;;;;;5010615;28;20106;-55
2024/01/11 01:23:17;;;;;;;63.83;22.88;;;;;;;;;;5010539;28;20026;-56
2024/01/11 01:25:44;;;;;;;70.65;23.25;;;;;;;;;;5009784;28;20030;-54
2024/01/11 01:28:10;;;;;;;69.90;24.15;;;;;;;;;;4989171;28;20112;-53
2024/01/11 01:30:36;;;;;;;65.72;22.67;;;;;;;;;;5008096;28;20026;-56
2024/01/11 01:33:02;;;;;;;77.05;24.83;;;;;;;;;;5007617;28;20512;-53
2024/01/11 01:35:28;;;;;;;72.03;26.42;;;;;;;;;;5008189;28;20037;-55
2024/01/11 01:37:54;;;;;;;67.55;23.80;;;;;;;;;;5009050;28;20026;-53
2024/01/11 01:40:20;;;;;;;61.83;24.25;;;;;;;;;;5007597;28;20526;-55
2024/01/11 01:42:46;;;;;;;67.57;25.27;;;;;;;;;;5006489;28;20025;-54
2024/01/11 01:45:12;;;;;;;75.25;27.95;;;;;;;;;;5013866;28;20034;-51
2024/01/11 01:47:40;;;;;;;75.50;27.77;;;;;;;;;;5008061;28;20076;-52
2024/01/11 01:50:07;;;;;;;86.10;30.70;;;;;;;;;;5014565;28;20040;-56
2024/01/11 01:52:33;;;;;;;90.68;28.27;;;;;;;;;;5015412;28;20496;-53
2024/01/11 01:54:59;;;;;;;85.03;28.20;;;;;;;;;;5006565;28;20029;-55
2024/01/11 01:57:26;;;;;;;77.57;27.75;;;;;;;;;;5012618;28;20033;-58
2024/01/11 01:59:53;;;;;;;67.18;26.98;;;;;;;;;;5007377;28;20528;-59
2024/01/11 02:02:20;;;;;;;69.20;26.52;;;;;;;;;;5016270;28;20024;-56
2024/01/11 02:04:46;;;;;;;74.80;27.42;;;;;;;;;;5006391;28;20040;-54
2024/01/11 02:07:12;;;;;;;82.90;28.27;;;;;;;;;;5013130;28;20137;-57
2024/01/11 02:09:39;;;;;;;76.82;28.55;;;;;;;;;;5006823;28;20532;-55
2024/01/11 02:12:06;;;;;;;77.68;29.88;;;;;;;;;;5016734;28;20084;-58
2024/01/11 02:14:31;;;;;;;87.22;29.88;;;;;;;;;;5005685;28;20038;-57
2024/01/11 02:16:57;;;;;;;72.40;25.90;;;;;;;;;;5009596;28;20029;-55
2024/01/11 02:19:23;;;;;;;81.80;27.63;;;;;;;;;;5007007;28;20060;-56
2024/01/11 02:21:50;;;;;;;74.43;28.60;;;;;;;;;;5014911;28;20030;-56
2024/01/11 02:24:16;;;;;;;84.03;31.00;;;;;;;;;;5008123;28;20034;-55
2024/01/11 02:27:01;;;;;;;86.13;29.85;;;;;;;;;;5007759;28;20049;-54
2024/01/11 02:29:27;;;;;;;88.18;30.27;;;;;;;;;;5005393;28;20136;-54
2024/01/11 02:31:53;;;;;;;87.32;29.20;;;;;;;;;;5011215;28;20037;-58
2024/01/11 02:34:20;;;;;;;87.35;29.75;;;;;;;;;;5003324;28;20423;-59
2024/01/11 02:36:46;;;;;;;96.03;30.73;;;;;;;;;;5014337;28;20034;-55
2024/01/11 02:39:12;;;;;;;78.72;29.45;;;;;;;;;;5011000;28;20106;-60
2024/01/11 02:41:38;;;;;;;90.07;33.13;;;;;;;;;;5006675;28;20101;-57
2024/01/11 02:44:04;;;;;;;78.10;31.05;;;;;;;;;;5002499;28;20496;-58
2024/01/11 02:46:31;;;;;;;92.35;31.25;;;;;;;;;;4990003;28;20061;-56
2024/01/11 02:48:56;;;;;;;88.13;31.50;;;;;;;;;;5007186;28;20030;-57
2024/01/11 02:51:22;;;;;;;90.75;30.70;;;;;;;;;;5008844;28;20565;-58
2024/01/11 02:53:48;;;;;;;80.88;28.58;;;;;;;;;;5008686;28;20508;-56
2024/01/11 02:56:14;;;;;;;77.97;27.77;;;;;;;;;;5007469;28;20038;-56
2024/01/11 02:58:40;;;;;;;83.60;29.02;;;;;;;;;;5009588;28;20105;-57
2024/01/11 03:01:06;;;;;;;84.15;29.35;;;;;;;;;;5005922;28;20160;-56
2024/01/11 03:03:32;;;;;;;78.93;29.80;;;;;;;;;;5009862;28;20029;-60
2024/01/11 03:05:58;;;;;;;79.32;27.92;;;;;;;;;;5021136;28;20086;-61
2024/01/11 03:08:24;;;;;;;82.18;30.13;;;;;;;;;;5029038;28;20024;-59
2024/01/11 03:10:50;;;;;;;80.22;28.65;;;;;;;;;;5028611;28;20033;-58
2024/01/11 03:13:16;;;;;;;89.00;30.33;;;;;;;;;;5031429;28;20042;-59
2024/01/11 03:15:43;;;;;;;95.97;31.15;;;;;;;;;;5018637;28;20110;-61
2024/01/11 03:18:09;;;;;;;76.28;29.27;;;;;;;;;;5033992;28;20025;-54
2024/01/11 03:20:34;;;;;;;90.75;30.13;;;;;;;;;;4999131;28;20085;-54
2024/01/11 03:23:00;;;;;;;72.43;28.27;;;;;;;;;;5012394;28;20101;-55
2024/01/11 03:25:26;;;;;;;78.95;27.95;;;;;;;;;;5004128;28;20033;-57
2024/01/11 03:27:52;;;;;;;84.05;29.13;;;;;;;;;;5009879;28;20091;-57
2024/01/11 03:30:18;;;;;;;103.50;32.13;;;;;;;;;;5009332;28;20029;-57
2024/01/11 03:32:44;;;;;;;87.97;29.83;;;;;;;;;;5013918;28;20445;-54
2024/01/11 03:35:10;;;;;;;82.00;28.13;;;;;;;;;;5004233;28;20096;-54
2024/01/11 03:37:36;;;;;;;81.22;29.08;;;;;;;;;;5010088;28;20400;-54
2024/01/11 03:40:03;;;;;;;90.13;28.20;;;;;;;;;;5011661;28;20120;-54
2024/01/11 03:42:29;;;;;;;79.75;27.38;;;;;;;;;;5017560;28;20029;-57
2024/01/11 03:44:55;;;;;;;74.95;29.88;;;;;;;;;;5008691;28;20038;-59
2024/01/11 03:47:21;;;;;;;82.65;30.00;;;;;;;;;;5014632;28;20103;-54
2024/01/11 03:49:47;;;;;;;78.72;28.48;;;;;;;;;;5011090;28;20029;-54
2024/01/11 03:52:13;;;;;;;74.82;28.98;;;;;;;;;;5022189;28;20044;-54
2024/01/11 03:54:39;;;;;;;82.97;29.55;;;;;;;;;;5004352;28;20030;-54
2024/01/11 03:57:06;;;;;;;79.13;28.13;;;;;;;;;;5019766;28;20056;-55
2024/01/11 03:59:32;;;;;;;82.55;28.92;;;;;;;;;;5008840;28;20024;-54
2024/01/11 04:01:58;;;;;;;84.53;28.13;;;;;;;;;;5015106;28;20169;-54
2024/01/11 04:04:24;;;;;;;75.63;29.23;;;;;;;;;;5008198;28;20038;-54
2024/01/11 04:06:52;;;;;;;83.45;31.92;;;;;;;;;;5015315;28;20101;-54
2024/01/11 04:09:18;;;;;;;78.78;27.92;;;;;;;;;;5014569;28;20025;-54
2024/01/11 04:11:44;;;;;;;82.18;29.30;;;;;;;;;;5015133;28;20076;-54
2024/01/11 04:14:10;;;;;;;84.38;27.90;;;;;;;;;;5011095;28;20033;-54
2024/01/11 04:16:40;;;;;;;77.75;29.27;;;;;;;;;;5012188;28;20037;-57
2024/01/11 04:19:06;;;;;;;77.53;27.50;;;;;;;;;;5016987;28;20026;-53
2024/01/11 04:21:32;;;;;;;86.20;27.52;;;;;;;;;;5012691;28;20084;-58
2024/01/11 04:23:58;;;;;;;90.28;28.20;;;;;;;;;;5029718;28;20036;-60
2024/01/11 04:26:24;;;;;;;64.40;26.70;;;;;;;;;;5024458;28;20057;-56
2024/01/11 04:28:51;;;;;;;93.35;29.67;;;;;;;;;;5034294;28;20102;-57
2024/01/11 04:31:18;;;;;;;74.07;28.20;;;;;;;;;;5027873;28;20034;-60
2024/01/11 04:33:44;;;;;;;87.80;29.77;;;;;;;;;;5029010;28;20030;-55
2024/01/11 04:36:10;;;;;;;84.32;28.08;;;;;;;;;;5015390;28;20113;-59
2024/01/11 04:38:39;;;;;;;74.47;29.13;;;;;;;;;;5016876;28;20029;-59
2024/01/11 04:41:09;;;;;;;76.25;27.08;;;;;;;;;;5014095;28;20100;-54
2024/01/11 04:43:42;;;;;;;61.83;25.88;;;;;;;;;;5015519;28;20030;-55
2024/01/11 04:46:15;;;;;;;77.38;27.42;;;;;;;;;;5009607;28;20033;-58
2024/01/11 04:48:41;;;;;;;72.30;27.90;;;;;;;;;;5006181;28;20038;-55
2024/01/11 04:51:07;;;;;;;81.00;28.38;;;;;;;;;;5011013;28;20392;-55
2024/01/11 04:53:33;;;;;;;74.38;29.08;;;;;;;;;;5010744;28;20053;-57
2024/01/11 04:55:59;;;;;;;74.10;27.17;;;;;;;;;;5007365;28;20026;-58
2024/01/11 04:58:25;;;;;;;78.70;27.77;;;;;;;;;;5013987;28;20096;-56
2024/01/11 05:00:51;;;;;;;81.20;28.05;;;;;;;;;;5009052;28;20408;-53
2024/01/11 05:03:17;;;;;;;84.60;30.38;;;;;;;;;;5014868;28;20364;-53
2024/01/11 05:05:43;;;;;;;87.80;28.00;;;;;;;;;;5004368;28;20501;-54
2024/01/11 05:08:09;;;;;;;78.50;27.90;;;;;;;;;;5017513;28;20056;-56
2024/01/11 05:10:36;;;;;;;76.60;29.10;;;;;;;;;;5013169;28;20036;-56
2024/01/11 05:13:02;;;;;;;80.85;28.85;;;;;;;;;;4999592;28;20026;-57
2024/01/11 05:15:28;;;;;;;71.60;29.40;;;;;;;;;;5005150;28;20468;-56
2024/01/11 05:17:56;;;;;;;81.65;27.30;;;;;;;;;;4987916;28;20026;-54
2024/01/11 05:20:22;;;;;;;83.28;28.58;;;;;;;;;;5006583;28;20109;-59
2024/01/11 05:22:48;;;;;;;76.68;26.60;;;;;;;;;;5007584;28;20452;-54
2024/01/11 05:25:14;;;;;;;84.75;27.77;;;;;;;;;;5008176;28;20660;-53
2024/01/11 05:27:40;;;;;;;86.22;29.42;;;;;;;;;;5011654;28;20030;-54
2024/01/11 05:30:06;;;;;;;82.63;28.42;;;;;;;;;;5012314;28;20030;-55
2024/01/11 05:32:32;;;;;;;77.78;25.70;;;;;;;;;;5011042;28;20026;-51
2024/01/11 05:34:58;;;;;;;79.93;27.67;;;;;;;;;;5009740;28;20072;-53
2024/01/11 05:37:24;;;;;;;71.68;26.38;;;;;;;;;;5008362;28;20034;-52
2024/01/11 05:39:50;;;;;;;74.10;26.40;;;;;;;;;;5009101;28;20017;-55
2024/01/11 05:42:16;;;;;;;73.75;27.02;;;;;;;;;;5010871;28;20041;-55
2024/01/11 05:44:42;;;;;;;77.05;27.65;;;;;;;;;;5010218;28;20029;-54
2024/01/11 05:47:08;;;;;;;77.15;27.38;;;;;;;;;;5016056;28;20025;-55
2024/01/11 05:49:34;;;;;;;78.97;27.92;;;;;;;;;;5015842;28;20129;-53
2024/01/11 05:52:00;;;;;;;77.20;27.77;;;;;;;;;;5007478;28;20445;-55
2024/01/11 05:54:28;;;;;;;80.13;27.48;;;;;;;;;;5002846;28;20049;-56
2024/01/11 05:56:56;;;;;;;74.97;26.90;;;;;;;;;;5004171;28;20033;-53
2024/01/11 05:59:22;;;;;;;89.85;29.58;;;;;;;;;;5005633;28;20037;-57
2024/01/11 06:01:48;;;;;;;65.78;27.02;;;;;;;;;;5002814;28;20025;-58
2024/01/11 06:04:14;;;;;;;74.45;28.10;;;;;;;;;;5011262;28;20072;-58
2024/01/11 06:06:40;;;;;;;78.82;27.77;;;;;;;;;;5007299;28;20040;-55
2024/01/11 06:09:07;;;;;;;87.65;29.17;;;;;;;;;;5008065;28;20034;-56
2024/01/11 06:11:33;;;;;;;73.28;27.80;;;;;;;;;;5007464;28;20022;-56
2024/01/11 06:14:01;;;;;;;78.57;25.55;;;;;;;;;;5009825;28;20022;-56
2024/01/11 06:16:27;;;;;;;66.45;25.08;;;;;;;;;;5008484;28;20033;-53
2024/01/11 06:18:53;;;;;;;69.20;26.15;;;;;;;;;;5016529;28;20041;-53
2024/01/11 06:21:19;;;;;;;81.93;28.10;;;;;;;;;;5008879;28;20021;-55
2024/01/11 06:23:45;;;;;;;79.20;27.17;;;;;;;;;;5013698;28;20022;-55
2024/01/11 06:26:10;;;;;;;78.90;27.00;;;;;;;;;;5007438;28;20084;-55
2024/01/11 06:28:36;;;;;;;78.10;29.23;;;;;;;;;;5003300;28;20045;-56
2024/01/11 06:31:03;;;;;;;73.72;27.45;;;;;;;;;;4998370;28;20026;-56
2024/01/11 06:33:29;;;;;;;80.30;29.30;;;;;;;;;;5007875;28;20026;-56
2024/01/11 06:35:55;;;;;;;77.82;28.27;;;;;;;;;;5004285;28;20033;-52
2024/01/11 06:38:21;;;;;;;72.18;26.80;;;;;;;;;;5005715;28;20534;-56
2024/01/11 06:40:48;;;;;;;76.78;26.88;;;;;;;;;;5007323;28;20018;-55
2024/01/11 06:43:14;;;;;;;75.80;26.13;;;;;;;;;;5017296;28;20109;-59
2024/01/11 06:45:40;;;;;;;71.90;25.40;;;;;;;;;;5010707;28;20038;-53
2024/01/11 06:48:06;;;;;;;74.88;27.05;;;;;;;;;;5010160;28;20045;-53
2024/01/11 06:50:32;;;;;;;66.93;26.38;;;;;;;;;;5012627;28;20028;-52
2024/01/11 06:52:58;;;;;;;68.68;25.80;;;;;;;;;;5015968;28;20033;-55
2024/01/11 06:55:24;;;;;;;80.60;28.77;;;;;;;;;;5011962;28;20112;-56
2024/01/11 06:57:50;;;;;;;78.22;26.30;;;;;;;;;;5011087;28;20072;-53
2024/01/11 07:00:16;;;;;;;78.35;26.85;;;;;;;;;;5017344;28;20076;-54
2024/01/11 07:02:42;;;;;;;80.82;29.33;;;;;;;;;;5003835;28;20033;-55
2024/01/11 07:05:08;;;;;;;77.32;26.75;;;;;;;;;;5010018;28;20026;-56
2024/01/11 07:07:34;;;;;;;84.90;28.77;;;;;;;;;;5009906;28;20057;-56
2024/01/11 07:10:00;;;;;;;84.03;28.33;;;;;;;;;;5015472;28;20018;-56
2024/01/11 07:12:26;;;;;;;84.40;30.30;;;;;;;;;;5022291;28;20030;-56
2024/01/11 07:14:52;;;;;;;84.88;28.45;;;;;;;;;;5021222;28;20482;-57
2024/01/11 07:17:18;;;;;;;85.63;30.60;;;;;;;;;;5017156;28;20160;-56
2024/01/11 07:19:44;;;;;;;88.85;28.98;;;;;;;;;;5018969;28;20507;-54
2024/01/11 07:22:10;;;;;;;86.72;29.65;;;;;;;;;;5016076;28;20026;-52
2024/01/11 07:24:39;;;;;;;85.72;30.88;;;;;;;;;;5021264;28;20163;-54
2024/01/11 07:27:07;;;;;;;74.80;26.85;;;;;;;;;;5016021;28;20041;-54
2024/01/11 07:29:34;;;;;;;70.47;25.52;;;;;;;;;;5021789;28;20511;-52
2024/01/11 07:32:00;;;;;;;74.25;25.83;;;;;;;;;;5013806;28;20030;-53
2024/01/11 07:34:27;;;;;;;76.30;28.58;;;;;;;;;;5019197;28;20091;-55
2024/01/11 07:36:53;;;;;;;84.13;29.10;;;;;;;;;;5012018;28;20022;-53
2024/01/11 07:39:19;;;;;;;78.88;26.35;;;;;;;;;;5020795;28;20396;-54
2024/01/11 07:41:45;;;;;;;74.95;27.95;;;;;;;;;;5015895;28;20370;-53
2024/01/11 07:44:11;;;;;;;82.57;28.35;;;;;;;;;;5022569;28;20029;-55
2024/01/11 07:46:37;;;;;;;71.38;26.33;;;;;;;;;;5014356;28;20397;-56
2024/01/11 07:49:04;;;;;;;77.85;27.48;;;;;;;;;;5021475;28;20052;-55
2024/01/11 07:51:30;;;;;;;77.90;27.20;;;;;;;;;;5010441;28;20030;-56
2024/01/11 07:53:56;;;;;;;80.93;26.65;;;;;;;;;;5018075;28;20048;-57
2024/01/11 07:56:22;;;;;;;76.50;27.65;;;;;;;;;;5009453;28;20104;-56
2024/01/11 07:58:48;;;;;;;84.75;29.50;;;;;;;;;;5020556;28;20030;-55
2024/01/11 08:01:16;;;;;;;71.22;27.55;;;;;;;;;;5008535;28;20053;-55
2024/01/11 08:03:44;;;;;;;82.85;29.42;;;;;;;;;;5013839;28;20057;-55
2024/01/11 08:06:10;;;;;;;79.22;28.15;;;;;;;;;;5014801;28;20026;-54
2024/01/11 08:08:41;;;;;;;76.72;27.75;;;;;;;;;;5014038;28;20130;-54
2024/01/11 08:11:10;;;;;;;84.60;27.52;;;;;;;;;;5015990;28;20053;-57
2024/01/11 08:13:37;;;;;;;87.80;30.02;;;;;;;;;;5009935;28;20022;-56
2024/01/11 08:16:04;;;;;;;78.70;27.40;;;;;;;;;;5020322;28;20033;-54
2024/01/11 08:18:31;;;;;;;73.72;28.40;;;;;;;;;;5018272;28;20026;-55
2024/01/11 08:20:57;;;;;;;72.35;27.83;;;;;;;;;;5011933;28;20152;-53
2024/01/11 08:23:23;;;;;;;84.28;28.75;;;;;;;;;;5014373;28;20100;-54
2024/01/11 08:25:49;;;;;;;76.53;28.23;;;;;;;;;;5010117;28;20053;-53
2024/01/11 08:28:15;;;;;;;80.97;29.42;;;;;;;;;;5014729;28;20042;-55
2024/01/11 08:30:42;;;;;;;89.68;29.98;;;;;;;;;;5019295;28;20042;-54
2024/01/11 08:33:08;;;;;;;77.22;27.15;;;;;;;;;;5013797;28;20363;-55
2024/01/11 08:35:35;;;;;;;84.68;28.48;;;;;;;;;;5017852;28;20036;-57
2024/01/11 08:38:02;;;;;;;81.40;30.08;;;;;;;;;;5011319;28;20108;-56
2024/01/11 08:40:28;;;;;;;78.35;27.77;;;;;;;;;;5015845;28;20446;-51
2024/01/11 08:42:54;;;;;;;95.88;31.20;;;;;;;;;;5014302;28;20018;-54
2024/01/11 08:45:22;;;;;;;81.88;26.65;;;;;;;;;;5020472;28;20080;-53
2024/01/11 08:47:48;;;;;;;82.70;29.17;;;;;;;;;;5015122;28;20064;-54
2024/01/11 08:50:15;;;;;;;72.28;26.98;;;;;;;;;;5023752;28;20022;-57
2024/01/11 08:52:41;;;;;;;77.28;29.73;;;;;;;;;;5006933;28;20485;-54
2024/01/11 08:55:07;;;;;;;88.50;30.50;;;;;;;;;;5022332;28;20033;-53
2024/01/11 08:57:35;;;;;;;84.63;27.98;;;;;;;;;;5010039;28;20306;-53
2024/01/11 09:00:01;;;;;;;78.50;28.75;;;;;;;;;;5021244;28;20083;-54
2024/01/11 09:02:27;;;;;;;87.57;30.85;;;;;;;;;;5011641;28;20026;-53
2024/01/11 09:04:53;;;;;;;99.25;31.88;;;;;;;;;;5015646;28;20100;-56
2024/01/11 09:07:19;;;;;;;84.35;31.27;;;;;;;;;;5008571;28;20459;-54
2024/01/11 09:09:45;;;;;;;98.43;30.40;;;;;;;;;;5012540;28;20037;-55
2024/01/11 09:12:11;;;;;;;97.75;33.22;;;;;;;;;;5010450;28;20491;-54
2024/01/11 09:14:39;;;;;;;85.03;30.85;;;;;;;;;;5019576;28;20040;-55
2024/01/11 09:17:06;;;;;;;93.88;31.88;;;;;;;;;;5015686;28;20485;-56
2024/01/11 09:19:33;;;;;;;80.28;30.00;;;;;;;;;;5016746;28;20053;-59
2024/01/11 09:22:00;;;;;;;90.30;32.25;;;;;;;;;;5010747;28;20541;-55
2024/01/11 09:24:26;;;;;;;83.88;29.38;;;;;;;;;;5018334;28;20033;-55
2024/01/11 09:26:52;;;;;;;90.72;34.47;;;;;;;;;;5012146;28;20037;-55
2024/01/11 09:29:17;;;;;;;90.85;33.53;;;;;;;;;;5017400;28;20032;-52
2024/01/11 09:31:44;;;;;;;90.38;34.53;;;;;;;;;;5010245;28;20026;-55
2024/01/11 09:34:10;;;;;;;90.78;32.92;;;;;;;;;;5019988;28;20156;-56
2024/01/11 09:36:39;;;;;;;103.88;34.08;;;;;;;;;;5012961;28;20033;-54
2024/01/11 09:39:05;;;;;;;91.68;32.92;;;;;;;;;;5014851;28;20088;-55
2024/01/11 09:41:32;;;;;;;89.82;32.88;;;;;;;;;;5007699;28;20069;-54
2024/01/11 09:44:01;;;;;;;86.97;32.25;;;;;;;;;;5013303;28;20029;-57
2024/01/11 09:46:28;;;;;;;89.13;32.42;;;;;;;;;;5018072;28;20037;-56
2024/01/11 09:48:54;;;;;;;90.13;31.88;;;;;;;;;;5015464;28;20313;-55
2024/01/11 09:51:20;;;;;;;82.30;31.15;;;;;;;;;;5015911;28;20034;-55
2024/01/11 09:53:47;;;;;;;87.78;31.77;;;;;;;;;;5011089;28;20365;-56
2024/01/11 09:56:13;;;;;;;94.95;31.38;;;;;;;;;;5013346;28;20377;-52
2024/01/11 09:58:41;;;;;;;83.28;32.08;;;;;;;;;;5011282;28;20052;-53
2024/01/11 10:01:10;;;;;;;91.13;33.92;;;;;;;;;;5016559;28;20096;-53
2024/01/11 10:03:36;;;;;;;94.40;33.00;;;;;;;;;;5013647;28;20019;-53
2024/01/11 10:06:03;;;;;;;82.25;31.73;;;;;;;;;;5022605;28;20022;-53
2024/01/11 10:08:30;;;;;;;81.65;31.33;;;;;;;;;;5019453;28;20511;-54
2024/01/11 10:10:56;;;;;;;86.05;33.17;;;;;;;;;;5021665;28;20045;-56
2024/01/11 10:13:28;;;;;;;92.35;35.08;;;;;;;;;;5008920;28;20034;-53
2024/01/11 10:16:05;;;;;;;85.57;33.38;;;;;;;;;;5014764;28;20081;-56
2024/01/11 10:18:30;;;;;;;85.47;33.60;;;;;;;;;;5011051;28;20379;-53
2024/01/11 10:20:57;;;;;;;78.32;31.50;;;;;;;;;;5019297;28;20018;-55
2024/01/11 10:23:23;;;;;;;94.65;33.08;;;;;;;;;;5013051;28;20033;-53
2024/01/11 10:25:49;;;;;;;83.25;32.67;;;;;;;;;;5012514;28;20026;-53
2024/01/11 10:28:18;;;;;;;80.57;32.33;;;;;;;;;;5014927;28;20056;-55
2024/01/11 10:30:46;;;;;;;82.63;31.30;;;;;;;;;;5018565;28;20504;-54
2024/01/11 10:33:12;;;;;;;83.20;31.42;;;;;;;;;;5013809;28;20045;-53
2024/01/11 10:35:38;;;;;;;87.63;32.05;;;;;;;;;;4998279;28;20075;-52
2024/01/11 10:38:08;;;;;;;78.18;34.05;;;;;;;;;;5013080;28;20018;-52
2024/01/11 10:40:34;;;;;;;84.68;31.25;;;;;;;;;;5013615;28;20079;-57
2024/01/11 10:43:01;;;;;;;74.40;29.40;;;;;;;;;;5014660;28;20025;-53
2024/01/11 10:45:27;;;;;;;80.70;32.03;;;;;;;;;;5017359;28;20038;-57
2024/01/11 10:48:01;;;;;;;77.88;30.40;;;;;;;;;;5014011;28;20034;-58
2024/01/11 10:50:30;;;;;;;71.53;28.42;;;;;;;;;;5019945;28;20034;-53
2024/01/11 10:53:08;;;;;;;81.95;32.15;;;;;;;;;;5020100;28;20366;-54
2024/01/11 10:55:35;;;;;;;81.45;31.42;;;;;;;;;;5014986;28;20089;-53
2024/01/11 10:58:02;;;;;;;83.75;30.85;;;;;;;;;;5024636;28;20014;-56
2024/01/11 11:00:29;;;;;;;85.10;32.10;;;;;;;;;;5027612;28;20056;-56
2024/01/11 11:02:56;;;;;;;85.28;31.65;;;;;;;;;;5028341;28;20480;-58
2024/01/11 11:05:25;;;;;;;84.65;30.05;;;;;;;;;;5018405;28;20034;-55
2024/01/11 11:07:51;;;;;;;86.43;31.52;;;;;;;;;;5021762;28;20057;-54
2024/01/11 11:10:21;;;;;;;83.65;32.35;;;;;;;;;;5012723;28;20122;-58
2024/01/11 11:12:49;;;;;;;80.88;30.88;;;;;;;;;;5004800;28;20114;-52
2024/01/11 11:15:15;;;;;;;80.35;32.13;;;;;;;;;;5006579;28;20468;-56
2024/01/11 11:17:43;;;;;;;78.13;31.85;;;;;;;;;;5029258;28;20509;-58
2024/01/11 11:20:11;;;;;;;76.30;33.15;;;;;;;;;;5029558;28;20037;-58
2024/01/11 11:22:37;;;;;;;76.30;32.67;;;;;;;;;;5018284;28;20082;-58
2024/01/11 11:25:10;;;;;;;83.60;33.72;;;;;;;;;;5020602;28;20044;-58
2024/01/11 11:27:37;;;;;;;88.90;33.42;;;;;;;;;;5022420;28;20026;-58
2024/01/11 11:30:06;;;;;;;89.82;33.97;;;;;;;;;;5031260;28;20037;-58
2024/01/11 11:32:38;;;;;;;77.32;33.38;;;;;;;;;;5018691;28;20457;-57
2024/01/11 11:35:08;;;;;;;84.43;33.83;;;;;;;;;;5009920;28;20030;-55
2024/01/11 11:37:36;;;;;;;88.47;33.90;;;;;;;;;;5013923;28;20175;-55
2024/01/11 11:40:02;;;;;;;83.28;33.00;;;;;;;;;;5012619;28;20046;-54
2024/01/11 11:42:31;;;;;;;90.63;35.65;;;;;;;;;;5010674;28;20038;-54
2024/01/11 11:44:57;;;;;;;75.22;33.65;;;;;;;;;;5010895;28;20407;-54
2024/01/11 11:47:24;;;;;;;84.65;32.05;;;;;;;;;;5009466;28;20049;-53
2024/01/11 11:49:59;;;;;;;94.03;34.40;;;;;;;;;;5008220;28;20123;-53
2024/01/11 11:52:25;;;;;;;89.25;32.78;;;;;;;;;;5012461;28;20514;-54
2024/01/11 11:54:51;;;;;;;82.20;32.92;;;;;;;;;;5008170;28;20469;-57
2024/01/11 11:57:17;;;;;;;84.25;32.40;;;;;;;;;;5012320;28;20041;-54
2024/01/11 11:59:43;;;;;;;85.50;33.03;;;;;;;;;;5006578;28;21139;-53
2024/01/11 12:02:17;;;;;;;86.32;33.33;;;;;;;;;;5007626;28;20084;-56
2024/01/11 12:04:49;;;;;;;90.35;33.00;;;;;;;;;;5012694;28;20369;-53
2024/01/11 12:07:15;;;;;;;81.25;32.10;;;;;;;;;;5010054;28;20029;-53
2024/01/11 12:09:41;;;;;;;79.80;34.42;;;;;;;;;;5006178;28;20033;-52
2024/01/11 12:12:08;;;;;;;72.88;31.10;;;;;;;;;;5007901;28;20085;-55
2024/01/11 12:14:34;;;;;;;86.63;33.33;;;;;;;;;;5009285;28;20041;-56
2024/01/11 12:17:00;;;;;;;83.47;33.55;;;;;;;;;;5006495;28;20026;-56
2024/01/11 12:19:26;;;;;;;83.38;34.00;;;;;;;;;;5004599;28;20101;-54
2024/01/11 12:21:52;;;;;;;76.03;32.42;;;;;;;;;;5010249;28;20034;-54
2024/01/11 12:24:21;;;;;;;82.28;33.40;;;;;;;;;;5008801;28;20026;-54
2024/01/11 12:26:47;;;;;;;79.68;32.22;;;;;;;;;;5009294;28;20026;-51
2024/01/11 12:29:14;;;;;;;84.30;34.10;;;;;;;;;;5008845;28;20033;-54
2024/01/11 12:31:40;;;;;;;90.75;35.70;;;;;;;;;;5010863;28;20034;-52
2024/01/11 12:34:06;;;;;;;78.68;33.10;;;;;;;;;;5016959;28;20026;-57
2024/01/11 12:36:32;;;;;;;71.47;30.90;;;;;;;;;;5010203;28;20022;-54
2024/01/11 12:38:58;;;;;;;87.65;32.45;;;;;;;;;;5006704;28;20021;-54
2024/01/11 12:41:24;;;;;;;81.47;32.28;;;;;;;;;;5008453;28;20025;-55
2024/01/11 12:43:50;;;;;;;79.00;30.95;;;;;;;;;;5013209;28;20034;-59
2024/01/11 12:46:17;;;;;;;76.57;29.23;;;;;;;;;;5010175;28;20048;-55
2024/01/11 12:48:43;;;;;;;77.88;32.58;;;;;;;;;;5013068;28;20404;-54
2024/01/11 12:51:09;;;;;;;84.22;32.72;;;;;;;;;;5008228;28;20040;-54
2024/01/11 12:53:36;;;;;;;77.97;33.63;;;;;;;;;;5013618;28;20101;-51
2024/01/11 12:56:10;;;;;;;81.85;32.97;;;;;;;;;;5010259;28;20026;-54
2024/01/11 12:58:36;;;;;;;72.00;31.88;;;;;;;;;;5010496;28;20508;-53
2024/01/11 13:01:02;;;;;;;84.78;32.53;;;;;;;;;;5014774;28;20302;-53
2024/01/11 13:03:28;;;;;;;85.20;32.92;;;;;;;;;;5006025;28;20025;-53
2024/01/11 13:05:54;;;;;;;83.93;35.65;;;;;;;;;;5007551;28;20423;-54
2024/01/11 13:08:21;;;;;;;84.20;33.65;;;;;;;;;;5007592;28;20100;-55
2024/01/11 13:10:47;;;;;;;81.15;32.97;;;;;;;;;;5010798;28;20034;-52
2024/01/11 13:13:13;;;;;;;72.50;30.67;;;;;;;;;;5010943;28;20025;-55
2024/01/11 13:15:40;;;;;;;90.07;33.47;;;;;;;;;;5003145;28;20531;-53
2024/01/11 13:18:06;;;;;;;85.03;32.65;;;;;;;;;;5008672;28;20030;-52
2024/01/11 13:20:32;;;;;;;79.93;31.27;;;;;;;;;;5006747;28;20109;-53
2024/01/11 13:23:17;;;;;;;73.20;30.50;;;;;;;;;;5010174;28;20421;-53
2024/01/11 13:25:44;;;;;;;74.35;31.83;;;;;;;;;;5005954;28;20137;-55
2024/01/11 13:28:11;;;;;;;85.07;33.10;;;;;;;;;;5011416;28;20105;-55
2024/01/11 13:30:38;;;;;;;78.18;33.55;;;;;;;;;;5003165;28;20549;-53
2024/01/11 13:33:15;;;;;;;85.90;34.92;;;;;;;;;;5044519;28;20433;-53
2024/01/11 13:35:44;;;;;;;81.32;31.55;;;;;;;;;;5030883;28;20040;-54
2024/01/11 13:38:11;;;;;;;74.68;32.92;;;;;;;;;;5028863;28;20029;-56
2024/01/11 13:40:38;;;;;;;81.60;33.35;;;;;;;;;;5029698;28;20095;-54
2024/01/11 13:43:04;;;;;;;81.55;33.10;;;;;;;;;;5020216;28;20075;-52
2024/01/11 13:45:29;;;;;;;88.93;34.80;;;;;;;;;;5029651;28;20025;-54
2024/01/11 13:47:55;;;;;;;89.97;35.85;;;;;;;;;;5026923;28;20518;-57
2024/01/11 13:50:24;;;;;;;89.72;35.10;;;;;;;;;;5025665;28;20436;-54
2024/01/11 13:52:50;;;;;;;83.60;32.33;;;;;;;;;;5025821;28;20037;-51
2024/01/11 13:55:17;;;;;;;84.68;35.67;;;;;;;;;;5028582;28;20022;-54
2024/01/11 13:57:44;;;;;;;81.03;33.85;;;;;;;;;;5023953;28;20037;-54
2024/01/11 14:00:13;;;;;;;78.20;32.97;;;;;;;;;;5028948;28;20044;-53
2024/01/11 14:02:39;;;;;;;93.90;36.05;;;;;;;;;;5021549;28;20080;-57
2024/01/11 14:05:09;;;;;;;94.80;35.83;;;;;;;;;;5029447;28;20034;-55
2024/01/11 14:07:35;;;;;;;90.90;36.35;;;;;;;;;;5025579;28;20030;-52
2024/01/11 14:10:01;;;;;;;74.55;30.80;;;;;;;;;;5026697;28;20430;-52
2024/01/11 14:12:27;;;;;;;83.22;33.03;;;;;;;;;;5029431;28;20028;-54